createdAt,value
2023-03-03T00:00:08.374Z,99512.72
2023-03-03T00:02:35.190Z,99511.81
2023-03-03T00:05:01.975Z,99524.34
2023-03-03T00:07:28.557Z,99510.88
2023-03-03T00:09:55.427Z,99509.63
2023-03-03T00:12:30.315Z,99519.25
2023-03-03T00:14:57.106Z,99529.22
2023-03-03T00:17:26.938Z,99517.19
2023-03-03T00:19:54.303Z,99525.56
2023-03-03T00:22:38.308Z,99517.13
2023-03-03T00:25:29.131Z,99516.91
2023-03-03T00:27:56.680Z,99507.75
2023-03-03T00:30:25.514Z,99508.38
2023-03-03T00:32:55.887Z,99506.25
2023-03-03T00:35:38.938Z,99502.91
2023-03-03T00:38:18.167Z,99500.94
2023-03-03T00:40:45.444Z,99509.06
2023-03-03T00:43:36.130Z,99509.88
2023-03-03T00:46:03.208Z,99514.09
2023-03-03T00:48:33.268Z,99514.72
2023-03-03T00:51:01.535Z,99509.09
2023-03-03T00:53:30.165Z,99522.13
2023-03-03T00:55:57.099Z,99517.19
2023-03-03T00:58:25.647Z,99524.94
2023-03-03T01:00:54.506Z,99517.59
2023-03-03T01:03:24.046Z,99529.06
2023-03-03T01:05:51.696Z,99529.06
2023-03-03T01:08:19.869Z,99526.31
2023-03-03T01:10:52.432Z,99525.06
2023-03-03T01:13:21.072Z,99520.06
2023-03-03T01:15:49.131Z,99522.50
2023-03-03T01:18:16.134Z,99519.53
2023-03-03T01:20:42.981Z,99513.38
2023-03-03T01:23:09.586Z,99512.47
2023-03-03T01:25:36.661Z,99507.41
2023-03-03T01:28:03.644Z,99502.31
2023-03-03T01:30:31.693Z,99507.03
2023-03-03T01:32:58.713Z,99511.16
2023-03-03T01:35:25.395Z,99513.25
2023-03-03T01:37:52.184Z,99506.16
2023-03-03T01:40:24.929Z,99510.34
2023-03-03T01:42:52.909Z,99506.81
2023-03-03T01:45:26.044Z,99515.81
2023-03-03T01:48:05.668Z,99505.50
2023-03-03T01:51:10.189Z,99516.75
2023-03-03T01:53:39.919Z,99520.66
2023-03-03T01:56:07.831Z,99515.53
2023-03-03T01:58:41.812Z,99512.09
2023-03-03T02:01:14.818Z,99520.72
2023-03-03T02:03:42.266Z,99521.81
2023-03-03T02:06:15.348Z,99525.41
2023-03-03T02:09:15.201Z,99520.03
2023-03-03T02:11:43.409Z,99527.94
2023-03-03T02:14:11.762Z,99533.97
2023-03-03T02:16:39.272Z,99538.88
2023-03-03T02:19:10.066Z,99528.13
2023-03-03T02:21:36.619Z,99528.66
2023-03-03T02:24:12.368Z,99525.53
2023-03-03T02:26:42.878Z,99517.78
2023-03-03T02:29:10.615Z,99510.19
2023-03-03T02:31:38.786Z,99517.91
2023-03-03T02:34:06.226Z,99520.66
2023-03-03T02:36:39.210Z,99519.16
2023-03-03T02:39:26.922Z,99519.03
2023-03-03T02:42:24.200Z,99519.03
2023-03-03T02:44:50.788Z,99518.13
2023-03-03T02:47:18.017Z,99523.66
2023-03-03T02:49:45.360Z,99530.56
2023-03-03T02:52:15.548Z,99521.97
2023-03-03T02:54:42.139Z,99514.47
2023-03-03T02:57:09.232Z,99512.63
2023-03-03T02:59:35.837Z,99511.91
2023-03-03T03:02:02.496Z,99514.13
2023-03-03T03:04:29.328Z,99510.22
2023-03-03T03:06:56.689Z,99513.44
2023-03-03T03:09:25.364Z,99514.00
2023-03-03T03:11:52.322Z,99516.81
2023-03-03T03:14:19.034Z,99515.41
2023-03-03T03:16:45.644Z,99521.97
2023-03-03T03:19:12.704Z,99525.59
2023-03-03T03:21:39.632Z,99524.00
2023-03-03T03:24:06.705Z,99532.56
2023-03-03T03:26:33.484Z,99521.53
2023-03-03T03:29:00.189Z,99515.91
2023-03-03T03:31:27.349Z,99524.75
2023-03-03T03:33:54.157Z,99537.34
2023-03-03T03:36:20.903Z,99534.41
2023-03-03T03:38:47.555Z,99526.53
2023-03-03T03:41:14.281Z,99523.50
2023-03-03T03:43:41.233Z,99538.00
2023-03-03T03:46:08.570Z,99541.06
2023-03-03T03:48:35.623Z,99535.78
2023-03-03T03:51:02.399Z,99542.50
2023-03-03T03:53:29.109Z,99541.81
2023-03-03T03:55:56.661Z,99535.88
2023-03-03T03:58:23.386Z,99539.50
2023-03-03T04:00:50.348Z,99535.38
2023-03-03T04:03:17.062Z,99542.38
2023-03-03T04:05:44.299Z,99541.06
2023-03-03T04:08:11.415Z,99544.47
2023-03-03T04:10:38.494Z,99540.97
2023-03-03T04:13:05.198Z,99552.84
2023-03-03T04:15:31.994Z,99538.66
2023-03-03T04:17:58.671Z,99543.19
2023-03-03T04:20:25.355Z,99545.03
2023-03-03T04:22:52.291Z,99542.38
2023-03-03T04:25:19.089Z,99549.34
2023-03-03T04:27:45.830Z,99539.91
2023-03-03T04:30:14.238Z,99539.50
2023-03-03T04:32:41.863Z,99553.13
2023-03-03T04:35:09.113Z,99556.75
2023-03-03T04:37:36.394Z,99555.00
2023-03-03T04:40:05.144Z,99556.13
2023-03-03T04:42:31.844Z,99557.09
2023-03-03T04:44:58.571Z,99558.88
2023-03-03T04:47:25.259Z,99560.59
2023-03-03T04:49:51.942Z,99562.84
2023-03-03T04:52:18.692Z,99564.56
2023-03-03T04:54:45.710Z,99576.16
2023-03-03T04:57:12.371Z,99559.19
2023-03-03T04:59:39.087Z,99556.69
2023-03-03T05:02:05.913Z,99567.88
2023-03-03T05:04:33.467Z,99561.13
2023-03-03T05:07:00.195Z,99570.75
2023-03-03T05:09:27.625Z,99574.22
2023-03-03T05:11:54.381Z,99570.13
2023-03-03T05:14:21.362Z,99563.88
2023-03-03T05:16:48.178Z,99569.78
2023-03-03T05:19:15.227Z,99558.44
2023-03-03T05:21:42.867Z,99564.81
2023-03-03T05:24:13.693Z,99572.72
2023-03-03T05:26:40.777Z,99574.94
2023-03-03T05:29:08.286Z,99574.03
2023-03-03T05:31:35.071Z,99567.25
2023-03-03T05:34:02.161Z,99574.84
2023-03-03T05:36:28.840Z,99580.13
2023-03-03T05:38:55.584Z,99583.47
2023-03-03T05:41:22.557Z,99580.03
2023-03-03T05:43:49.248Z,99588.06
2023-03-03T05:46:16.180Z,99571.00
2023-03-03T05:48:43.192Z,99577.03
2023-03-03T05:51:10.014Z,99590.31
2023-03-03T05:53:36.843Z,99585.28
2023-03-03T05:56:04.073Z,99582.50
2023-03-03T05:58:30.776Z,99595.88
2023-03-03T06:00:57.711Z,99601.00
2023-03-03T06:03:24.490Z,99595.69
2023-03-03T06:05:51.137Z,99592.06
2023-03-03T06:08:17.914Z,99595.19
2023-03-03T06:10:44.629Z,99593.03
2023-03-03T06:13:11.461Z,99609.31
2023-03-03T06:15:38.293Z,99604.84
2023-03-03T06:18:05.250Z,99610.88
2023-03-03T06:20:32.255Z,99612.94
2023-03-03T06:22:59.205Z,99610.28
2023-03-03T06:25:25.920Z,99612.22
2023-03-03T06:27:53.214Z,99617.66
2023-03-03T06:30:20.403Z,99614.63
2023-03-03T06:32:47.439Z,99608.34
2023-03-03T06:35:14.707Z,99619.00
2023-03-03T06:37:41.829Z,99620.66
2023-03-03T06:40:10.860Z,99619.28
2023-03-03T06:42:37.572Z,99620.91
2023-03-03T06:45:04.837Z,99618.97
2023-03-03T06:47:31.765Z,99631.38
2023-03-03T06:49:58.382Z,99631.75
2023-03-03T06:52:26.893Z,99641.25
2023-03-03T06:54:59.124Z,99640.56
2023-03-03T06:57:31.051Z,99644.00
2023-03-03T07:00:14.511Z,99644.94
2023-03-03T07:02:41.438Z,99645.94
2023-03-03T07:05:15.705Z,99644.38
2023-03-03T07:07:42.790Z,99639.63
2023-03-03T07:10:22.797Z,99653.31
2023-03-03T07:12:49.787Z,99646.38
2023-03-03T07:15:30.715Z,99640.16
2023-03-03T07:17:59.893Z,99635.78
2023-03-03T07:20:36.995Z,99624.66
2023-03-03T07:23:25.127Z,99629.56
2023-03-03T07:25:52.951Z,99629.78
2023-03-03T07:28:25.543Z,99627.41
2023-03-03T07:30:53.636Z,99629.94
2023-03-03T07:33:34.501Z,99639.66
2023-03-03T07:36:02.783Z,99648.78
2023-03-03T07:38:42.438Z,99662.41
2023-03-03T07:41:13.738Z,99658.50
2023-03-03T07:43:44.405Z,99665.34
2023-03-03T07:46:21.679Z,99671.38
2023-03-03T07:48:48.841Z,99673.00
2023-03-03T07:51:28.362Z,99677.56
2023-03-03T07:54:02.085Z,99685.84
2023-03-03T07:56:31.426Z,99686.19
2023-03-03T07:58:58.595Z,99683.28
2023-03-03T08:01:44.477Z,99691.13
2023-03-03T08:04:33.416Z,99691.72
2023-03-03T08:07:01.347Z,99683.59
2023-03-03T08:09:36.650Z,99688.59
2023-03-03T08:12:38.121Z,99696.38
2023-03-03T08:15:25.474Z,99692.91
2023-03-03T08:17:54.284Z,99690.06
2023-03-03T08:20:53.952Z,99697.81
2023-03-03T08:23:21.999Z,99698.31
2023-03-03T08:25:50.909Z,99700.00
2023-03-03T08:28:18.018Z,99691.84
2023-03-03T08:30:45.431Z,99690.22
2023-03-03T08:33:12.745Z,99684.13
2023-03-03T08:35:39.542Z,99697.31
2023-03-03T08:38:06.586Z,99711.38
2023-03-03T08:40:33.864Z,99712.34
2023-03-03T08:43:00.702Z,99719.25
2023-03-03T08:45:27.629Z,99722.59
2023-03-03T08:47:54.926Z,99723.56
2023-03-03T08:50:21.851Z,99729.97
2023-03-03T08:52:49.095Z,99732.63
2023-03-03T08:55:16.178Z,99732.94
2023-03-03T08:57:42.844Z,99737.09
2023-03-03T09:00:12.347Z,99730.66
2023-03-03T09:02:39.514Z,99730.72
2023-03-03T09:05:07.035Z,99736.81
2023-03-03T09:07:33.942Z,99735.72
2023-03-03T09:10:00.585Z,99729.84
2023-03-03T09:12:37.992Z,99723.19
2023-03-03T09:15:32.772Z,99742.00
2023-03-03T09:18:08.586Z,99732.06
2023-03-03T09:20:38.138Z,99741.88
2023-03-03T09:23:50.054Z,99746.59
2023-03-03T09:26:29.814Z,99740.59
2023-03-03T09:29:19.355Z,99745.00
2023-03-03T09:31:49.644Z,99748.06
2023-03-03T09:34:18.483Z,99748.00
2023-03-03T09:36:45.106Z,99753.34
2023-03-03T09:39:26.810Z,99749.84
2023-03-03T09:42:21.784Z,99756.78
2023-03-03T09:45:26.496Z,99753.78
2023-03-03T09:48:20.025Z,99760.19
2023-03-03T09:51:06.656Z,99762.19
2023-03-03T09:54:11.888Z,99753.34
2023-03-03T09:56:51.891Z,99755.16
2023-03-03T09:59:43.498Z,99758.84
2023-03-03T10:02:37.370Z,99764.53
2023-03-03T10:05:19.314Z,99756.94
2023-03-03T10:08:20.323Z,99762.38
2023-03-03T10:10:53.863Z,99765.31
2023-03-03T10:13:32.305Z,99764.22
2023-03-03T10:16:17.892Z,99763.56
2023-03-03T10:18:53.590Z,99755.38
2023-03-03T10:21:25.844Z,99757.47
2023-03-03T10:24:11.229Z,99766.78
2023-03-03T10:27:13.849Z,99760.13
2023-03-03T10:29:59.570Z,99759.84
2023-03-03T10:32:38.467Z,99769.78
2023-03-03T10:35:23.311Z,99761.41
2023-03-03T10:38:20.346Z,99762.38
2023-03-03T10:41:11.345Z,99770.38
2023-03-03T10:43:52.633Z,99766.50
2023-03-03T10:46:44.061Z,99768.94
2023-03-03T10:49:39.623Z,99764.44
2023-03-03T10:52:20.173Z,99761.38
2023-03-03T10:55:05.802Z,99772.38
2023-03-03T10:57:55.041Z,99764.09
2023-03-03T11:00:31.339Z,99764.72
2023-03-03T11:03:50.654Z,99771.75
2023-03-03T11:06:22.715Z,99768.09
2023-03-03T11:08:54.223Z,99761.81
2023-03-03T11:11:49.463Z,99768.53
2023-03-03T11:14:30.637Z,99767.31
2023-03-03T11:17:24.342Z,99757.72
2023-03-03T11:20:31.926Z,99758.03
2023-03-03T11:23:08.791Z,99757.50
2023-03-03T11:25:51.125Z,99758.69
2023-03-03T11:28:27.335Z,99754.75
2023-03-03T11:31:29.305Z,99759.34
2023-03-03T11:34:18.009Z,99752.47
2023-03-03T11:36:50.821Z,99752.19
2023-03-03T11:39:21.407Z,99748.22
2023-03-03T11:42:18.493Z,99752.97
2023-03-03T11:44:48.814Z,99740.56
2023-03-03T11:47:26.545Z,99733.97
2023-03-03T11:50:19.554Z,99741.50
2023-03-03T11:53:21.330Z,99742.41
2023-03-03T11:55:54.667Z,99745.94
2023-03-03T11:58:35.251Z,99743.31
2023-03-03T12:01:28.391Z,99739.34
2023-03-03T12:04:02.268Z,99737.03
2023-03-03T12:07:19.112Z,99738.25
2023-03-03T12:10:37.631Z,99725.41
2023-03-03T12:13:41.735Z,99716.56
2023-03-03T12:16:18.663Z,99713.31
2023-03-03T12:19:01.113Z,99714.75
2023-03-03T12:21:40.879Z,99709.56
2023-03-03T12:24:20.101Z,99714.75
2023-03-03T12:27:11.655Z,99704.22
2023-03-03T12:29:47.156Z,99704.63
2023-03-03T12:33:11.243Z,99701.13
2023-03-03T12:36:14.824Z,99701.09
2023-03-03T12:39:09.354Z,99689.75
2023-03-03T12:41:43.167Z,99693.09
2023-03-03T12:44:34.952Z,99691.84
2023-03-03T12:47:08.354Z,99681.53
2023-03-03T12:50:06.946Z,99678.34
2023-03-03T12:52:47.216Z,99683.34
2023-03-03T12:58:36.067Z,99679.56
2023-03-03T13:01:28.723Z,99677.41
2023-03-03T13:04:14.003Z,99671.22
2023-03-03T13:07:11.602Z,99670.91
2023-03-03T13:10:20.196Z,99661.09
2023-03-03T13:13:10.028Z,99659.22
2023-03-03T13:15:55.254Z,99661.16
2023-03-03T13:18:51.010Z,99650.19
2023-03-03T13:21:27.483Z,99662.84
2023-03-03T13:24:24.093Z,99657.94
2023-03-03T13:26:57.636Z,99667.63
2023-03-03T13:29:28.767Z,99663.44
2023-03-03T13:32:12.359Z,99653.75
2023-03-03T13:35:07.867Z,99655.25
2023-03-03T13:37:46.146Z,99653.78
2023-03-03T13:40:16.949Z,99657.53
2023-03-03T13:43:15.603Z,99658.63
2023-03-03T13:46:14.970Z,99654.47
2023-03-03T13:48:50.635Z,99655.41
2023-03-03T13:52:03.687Z,99653.25
2023-03-03T13:54:51.127Z,99646.75
2023-03-03T13:57:48.596Z,99645.84
2023-03-03T14:00:45.237Z,99650.38
2023-03-03T14:03:37.254Z,99648.81
2023-03-03T14:06:11.911Z,99630.50
2023-03-03T14:09:01.278Z,99633.69
2023-03-03T14:11:30.449Z,99627.97
2023-03-03T14:14:36.196Z,99626.50
2023-03-03T14:17:08.906Z,99626.69
2023-03-03T14:19:39.132Z,99635.53
2023-03-03T14:22:38.927Z,99630.41
2023-03-03T14:25:09.226Z,99629.94
2023-03-03T14:27:41.574Z,99626.78
2023-03-03T14:30:29.392Z,99627.63
2023-03-03T14:33:32.487Z,99624.44
2023-03-03T14:36:04.620Z,99619.94
2023-03-03T14:38:34.407Z,99620.38
2023-03-03T14:41:36.218Z,99619.44
2023-03-03T14:44:27.162Z,99614.47
2023-03-03T14:47:27.732Z,99616.53
2023-03-03T14:50:00.499Z,99610.28
2023-03-03T14:52:29.573Z,99613.47
2023-03-03T14:55:00.044Z,99607.09
2023-03-03T14:57:53.194Z,99604.19
2023-03-03T15:00:35.910Z,99603.06
2023-03-03T15:03:22.004Z,99602.00
2023-03-03T15:05:50.946Z,99604.75
2023-03-03T15:08:28.696Z,99594.91
2023-03-03T15:10:56.347Z,99596.56
2023-03-03T15:13:35.617Z,99588.41
2023-03-03T15:16:19.742Z,99583.84
2023-03-03T15:19:18.764Z,99586.91
2023-03-03T15:21:56.607Z,99590.34
2023-03-03T15:24:33.185Z,99580.66
2023-03-03T15:27:13.476Z,99573.25
2023-03-03T15:30:03.074Z,99580.03
2023-03-03T15:32:40.780Z,99579.47
2023-03-03T15:35:25.802Z,99579.47
2023-03-03T15:38:00.895Z,99572.56
2023-03-03T15:40:44.360Z,99569.63
2023-03-03T15:43:32.609Z,99570.44
2023-03-03T15:46:25.793Z,99570.38
2023-03-03T15:49:18.619Z,99566.06
2023-03-03T15:52:36.394Z,99561.72
2023-03-03T15:55:21.285Z,99564.69
2023-03-03T15:58:15.620Z,99564.66
2023-03-03T16:01:11.129Z,99559.75
2023-03-03T16:03:55.482Z,99565.16
2023-03-03T16:06:48.930Z,99567.00
2023-03-03T16:09:56.504Z,99569.75
2023-03-03T16:12:35.227Z,99570.59
2023-03-03T16:15:20.094Z,99576.25
2023-03-03T16:18:19.041Z,99580.47
2023-03-03T16:21:20.536Z,99587.16
2023-03-03T16:31:11.501Z,99594.44
2023-03-03T16:34:03.990Z,99592.88
2023-03-03T16:36:53.732Z,99604.59
2023-03-03T16:39:33.848Z,99606.84
2023-03-03T16:42:14.793Z,99607.78
2023-03-03T16:45:11.328Z,99612.84
2023-03-03T16:47:40.840Z,99619.78
2023-03-03T16:50:43.894Z,99624.19
2023-03-03T16:54:03.243Z,99625.84
2023-03-03T16:56:55.156Z,99624.50
2023-03-03T16:59:47.182Z,99618.06
2023-03-03T17:02:46.736Z,99631.63
2023-03-03T17:05:54.413Z,99629.69
2023-03-03T17:09:03.118Z,99634.06
2023-03-03T17:11:48.274Z,99640.91
2023-03-03T17:14:56.501Z,99646.59
2023-03-03T17:17:54.123Z,99643.72
2023-03-03T17:20:39.646Z,99649.16
2023-03-03T17:27:02.714Z,99654.88
2023-03-03T17:29:51.237Z,99652.28
2023-03-03T17:32:36.305Z,99645.03
2023-03-03T17:35:19.941Z,99650.38
2023-03-03T17:38:03.067Z,99650.75
2023-03-03T17:41:17.208Z,99659.47
2023-03-03T17:44:00.985Z,99657.69
2023-03-03T17:46:58.343Z,99650.66
2023-03-03T17:49:50.352Z,99657.25
2023-03-03T17:52:32.542Z,99654.63
2023-03-03T17:55:49.805Z,99660.31
2023-03-03T17:58:42.994Z,99663.22
2023-03-03T18:01:27.825Z,99664.53
2023-03-03T18:04:31.999Z,99666.44
2023-03-03T18:07:54.126Z,99670.84
2023-03-03T18:11:02.053Z,99677.56
2023-03-03T18:14:14.890Z,99676.78
2023-03-03T18:17:29.283Z,99674.47
2023-03-03T18:20:14.663Z,99681.88
2023-03-03T18:22:50.956Z,99684.19
2023-03-03T18:25:55.482Z,99692.97
2023-03-03T18:28:23.496Z,99680.56
2023-03-03T18:31:00.497Z,99687.06
2023-03-03T18:33:42.290Z,99686.97
2023-03-03T18:36:37.646Z,99686.25
2023-03-03T18:39:05.738Z,99687.94
2023-03-03T18:41:34.259Z,99678.84
2023-03-03T18:44:04.741Z,99680.16
2023-03-03T18:46:52.136Z,99686.31
2023-03-03T18:49:19.385Z,99692.81
2023-03-03T18:51:50.486Z,99683.31
2023-03-03T18:54:30.937Z,99688.97
2023-03-03T18:57:18.422Z,99695.63
2023-03-03T19:00:12.235Z,99696.31
2023-03-03T19:02:46.684Z,99696.66
2023-03-03T19:05:24.664Z,99696.59
2023-03-03T19:07:52.629Z,99693.09
2023-03-03T19:10:58.049Z,99692.94
2023-03-03T19:13:38.165Z,99702.28
2023-03-03T19:16:31.335Z,99698.81
2023-03-03T19:19:01.217Z,99703.94
2023-03-03T19:21:33.658Z,99705.03
2023-03-03T19:24:03.055Z,99698.19
2023-03-03T19:27:05.694Z,99697.47
2023-03-03T19:30:07.434Z,99701.38
2023-03-03T19:32:57.495Z,99704.00
2023-03-03T19:35:38.017Z,99703.09
2023-03-03T19:38:43.607Z,99704.25
2023-03-03T19:41:28.988Z,99706.91
2023-03-03T19:44:46.860Z,99696.19
2023-03-03T19:47:40.395Z,99705.56
2023-03-03T19:50:17.077Z,99707.63
2023-03-03T19:53:15.392Z,99709.63
2023-03-03T19:56:06.555Z,99713.66
2023-03-03T19:59:03.871Z,99708.78
2023-03-03T20:01:44.628Z,99716.97
2023-03-03T20:04:38.528Z,99721.63
2023-03-03T20:07:40.349Z,99722.22
2023-03-03T20:10:42.310Z,99715.50
2023-03-03T20:13:30.582Z,99718.72
2023-03-03T20:16:41.684Z,99719.63
2023-03-03T20:19:22.436Z,99724.06
2023-03-03T20:22:09.764Z,99722.69
2023-03-03T20:25:10.814Z,99720.13
2023-03-03T20:28:14.413Z,99718.19
2023-03-03T20:30:59.424Z,99719.22
2023-03-03T20:34:05.189Z,99715.50
2023-03-03T20:36:53.777Z,99724.16
2023-03-03T20:43:00.526Z,99722.22
2023-03-03T20:45:50.773Z,99721.91
2023-03-03T20:49:00.935Z,99715.69
2023-03-03T20:52:03.091Z,99714.22
2023-03-03T20:54:49.476Z,99717.84
2023-03-03T20:57:34.279Z,99716.88
2023-03-03T21:00:05.973Z,99720.03
2023-03-03T21:02:54.026Z,99720.69
2023-03-03T21:05:25.432Z,99717.56
2023-03-03T21:08:09.834Z,99724.69
2023-03-03T21:10:37.083Z,99716.88
2023-03-03T21:13:41.178Z,99722.63
2023-03-03T21:16:43.936Z,99718.97
2023-03-03T21:21:55.234Z,99720.44
2023-03-03T21:24:22.840Z,99712.72
2023-03-03T21:26:58.118Z,99719.06
2023-03-03T21:29:30.055Z,99716.22
2023-03-03T21:31:58.657Z,99714.94
2023-03-03T21:34:31.208Z,99716.13
2023-03-03T21:36:59.485Z,99721.13
2023-03-03T21:39:31.916Z,99721.06
2023-03-03T21:42:07.377Z,99722.69
2023-03-03T21:44:42.135Z,99713.69
2023-03-03T21:47:10.807Z,99720.91
2023-03-03T21:49:41.715Z,99712.91
2023-03-03T21:52:09.254Z,99714.03
2023-03-03T21:54:35.815Z,99713.16
2023-03-03T21:57:02.435Z,99710.63
2023-03-03T21:59:29.061Z,99707.09
2023-03-03T22:01:55.618Z,99706.19
2023-03-03T22:04:22.417Z,99704.25
2023-03-03T22:06:49.097Z,99698.03
2023-03-03T22:09:15.727Z,99696.28
2023-03-03T22:11:42.384Z,99694.41
2023-03-03T22:14:09.173Z,99694.19
2023-03-03T22:16:35.841Z,99689.22
2023-03-03T22:19:03.251Z,99688.47
2023-03-03T22:21:30.651Z,99696.41
2023-03-03T22:23:58.294Z,99694.66
2023-03-03T22:26:24.877Z,99686.66
2023-03-03T22:28:51.493Z,99692.72
2023-03-03T22:31:19.124Z,99684.69
2023-03-03T22:33:46.328Z,99687.06
2023-03-03T22:36:13.091Z,99692.69
2023-03-03T22:38:40.122Z,99681.44
2023-03-03T22:41:06.821Z,99681.28
2023-03-03T22:43:33.673Z,99668.34
2023-03-03T22:46:01.281Z,99684.38
2023-03-03T22:48:28.478Z,99673.09
2023-03-03T22:50:55.365Z,99673.25
2023-03-03T22:53:22.647Z,99668.69
2023-03-03T22:55:49.587Z,99672.97
2023-03-03T22:58:16.397Z,99677.38
2023-03-03T23:00:43.564Z,99667.81
2023-03-03T23:03:10.914Z,99672.00
2023-03-03T23:05:37.981Z,99672.13
2023-03-03T23:08:06.700Z,99669.25
2023-03-03T23:10:33.895Z,99669.75
2023-03-03T23:13:00.511Z,99668.97
2023-03-03T23:15:27.127Z,99664.59
2023-03-03T23:17:53.705Z,99660.91
2023-03-03T23:20:24.097Z,99662.28
2023-03-03T23:22:51.281Z,99658.53
2023-03-03T23:25:18.228Z,99657.91
2023-03-03T23:27:44.838Z,99653.38
2023-03-03T23:30:13.421Z,99659.25
2023-03-03T23:32:40.574Z,99648.38
2023-03-03T23:35:08.043Z,99653.94
2023-03-03T23:37:34.687Z,99648.13
2023-03-03T23:40:01.268Z,99651.47
2023-03-03T23:42:33.821Z,99648.06
2023-03-03T23:45:00.532Z,99646.47
2023-03-03T23:47:27.344Z,99663.16
2023-03-03T23:49:53.868Z,99657.97
2023-03-03T23:52:20.416Z,99652.94
2023-03-03T23:54:47.113Z,99653.06
2023-03-03T23:57:13.630Z,99650.16
2023-03-03T23:59:40.752Z,99647.38
